Flight Track Log - Related Links

Times and Time Zones

All times are in EDT time to prevent confusion due to time zone crossing. See the DAL674 flight status page for this flight to view local times or setup timezone preferences in your user account.

Time Position Orientation Groundspeed Altitude Reporting Facility
EDT Latitude Longitude Course Direction KTS MPH feet Rate Location/Type
Wed 02:38:52 PM 18.3333 -64.9333 282° West 180 207 1,300  Level San Juan Center
Wed 02:39:52 PM 18.2833 -64.9167 162° South 220 253 3,600 2,678 Climbing San Juan Center
Wed 02:40:53 PM 18.2667 -64.9833 255° West 270 311 6,700 3,025 Climbing San Juan Center
Wed 02:41:00 PM 18.5997 -65.2489 289° West  Level Estimated
Wed 02:41:53 PM 18.3167 -65.0500 308° West 290 334 9,700  Level San Juan Center
Wed 02:42:00 PM 18.6871 -65.3410 281° West  Level Estimated
Wed 02:42:53 PM 18.3833 -65.1167 317° Northwest 360 414 11,200  Level San Juan Center
Wed 02:43:00 PM 18.6311 -65.4572 243° Southwest  Level FlightAware Approximate
Wed 02:43:53 PM 18.4500 -65.2000 310° West 380 437 14,000  Level San Juan Center
Wed 02:44:00 PM 18.7189 -65.5489 282° West  Level Estimated
Wed 02:44:53 PM 18.5167 -65.2833 310° West 390 449 16,300  Level San Juan Center
Wed 02:45:53 PM 18.5833 -65.3667 310° West 400 460 18,500 2,050 Climbing San Juan Center
Wed 02:46:53 PM 18.6667 -65.4667 311° West 410 472 20,400 1,850 Climbing San Juan Center
Wed 02:47:53 PM 18.7500 -65.5667 311° West 430 495 22,200 1,636 Climbing San Juan Center
Wed 02:48:54 PM 18.8333 -65.6667 311° West 440 506 23,700 1,537 Climbing San Juan Center
Wed 02:49:54 PM 18.9000 -65.7500 310° West 460 529 25,300 1,450 Climbing San Juan Center
Wed 02:50:54 PM 19.0000 -65.8667 312° West 460 529 26,600 1,350 Climbing San Juan Center
Wed 02:51:54 PM 19.0833 -65.9667 311° West 460 529 28,000 1,300 Climbing San Juan Center
Wed 02:52:54 PM 19.1667 -66.0833 307° West 490 564 29,200 1,350 Climbing San Juan Center
Wed 02:53:54 PM 19.2333 -66.1667 310° West 480 552 30,700 1,500 Climbing San Juan Center
Wed 02:54:54 PM 19.3333 -66.2667 317° Northwest 480 552 32,200 1,450 Climbing San Juan Center
Wed 02:55:54 PM 19.4167 -66.3833 307° West 480 552 33,600 1,339 Climbing San Juan Center
Wed 02:56:55 PM 19.5000 -66.4833 311° West 480 552 34,900 1,300 Climbing San Juan Center
Wed 02:57:54 PM 19.5833 -66.6000 307° West 470 541 36,200 1,150 Climbing San Juan Center
Wed 02:58:55 PM 19.6667 -66.7000 312° West 470 541 37,200 893 Climbing San Juan Center
Wed 02:59:55 PM 19.7500 -66.8000 312° West 460 529 38,000 400 Climbing San Juan Center
Wed 03:00:55 PM 19.8167 -66.9167 301° West 450 518 38,000  Level San Juan Center
Wed 03:01:55 PM 19.9000 -67.0500 304° West 460 529 38,000  Level San Juan Center
Wed 03:02:55 PM 19.9667 -67.1333 310° West 470 541 38,000  Level San Juan Center
Wed 03:03:55 PM 20.0833 -67.2500 317° Northwest 460 529 38,000 -298 Level San Juan Center
Wed 03:04:56 PM 20.1667 -67.3500 312° West 460 529 37,400 -900 Descending San Juan Center
Wed 03:05:55 PM 20.2500 -67.4500 312° West 460 529 36,200 -1,100 Descending San Juan Center
Wed 03:06:56 PM 20.3333 -67.5667 307° West 470 541 35,200 -912 Descending San Juan Center
Wed 03:08:00 PM 20.4258 -67.6731 313° West 573 659 34,300 -581 Descending Miami Center
Wed 03:09:00 PM 20.5133 -67.7819 311° West 522 601 34,000 -150 Descending Miami Center
Wed 03:10:00 PM 20.6089 -67.8861 314° West 501 577 34,000  Level Miami Center
Wed 03:11:00 PM 20.6983 -67.9908 312° West 490 564 34,000  Level Miami Center
Wed 03:12:00 PM 20.7814 -68.1006 309° West 490 564 34,000  Level Miami Center
Wed 03:13:00 PM 20.8689 -68.2122 310° West 490 564 34,000  Level Miami Center
Wed 03:14:00 PM 20.9458 -68.3247 306° West 485 558 34,000  Level Miami Center
Wed 03:15:00 PM 21.0381 -68.4478 309° West 485 558 34,000  Level Miami Center
Wed 03:16:00 PM 21.1122 -68.5497 308° West 485 558 34,000  Level Miami Center
Wed 03:17:00 PM 21.1933 -68.6622 308° West 485 558 34,000  Level Miami Center
Wed 03:18:00 PM 21.2742 -68.7750 308° West 485 558 34,000  Level Miami Center
Wed 03:19:00 PM 21.3531 -68.8861 307° West 485 558 34,000  Level Miami Center
Wed 03:20:00 PM 21.4358 -68.9967 309° West 485 558 34,000  Level Miami Center
Wed 03:21:00 PM 21.5144 -69.1078 307° West 485 558 34,000  Level Miami Center
Wed 03:22:00 PM 21.5972 -69.2211 308° West 485 558 34,000  Level Miami Center
Wed 03:23:00 PM 21.6756 -69.3303 308° West 485 558 34,000  Level Miami Center
Wed 03:24:00 PM 21.7581 -69.4439 308° West 474 545 34,000  Level Miami Center
Wed 03:25:00 PM 21.8342 -69.5536 307° West 475 547 34,000  Level Miami Center
Wed 03:26:00 PM 21.9167 -69.6653 309° West 475 547 34,000  Level Miami Center
Wed 03:27:00 PM 21.9969 -69.7772 308° West 475 547 34,000  Level Miami Center
Wed 03:28:00 PM 22.0728 -69.8847 307° West 475 547 34,000  Level Miami Center
Wed 03:29:00 PM 22.1489 -69.9950 307° West 468 539 34,000  Level Miami Center
Wed 03:30:00 PM 22.2267 -70.1053 307° West 463 533 34,000  Level Miami Center
Wed 03:31:00 PM 22.3025 -70.2133 307° West 463 533 34,000  Level Miami Center
Wed 03:32:00 PM 22.3800 -70.3214 308° West 463 533 34,000  Level Miami Center
Wed 03:33:00 PM 22.4558 -70.4322 307° West 463 533 34,000  Level Miami Center
Wed 03:34:00 PM 22.5378 -70.5472 308° West 463 533 34,000  Level Miami Center
Wed 03:35:00 PM 22.6133 -70.6581 306° West 463 533 34,000  Level Miami Center
Wed 03:36:00 PM 22.6908 -70.7667 308° West 458 527 34,000  Level Miami Center
Wed 03:37:00 PM 22.7642 -70.8781 306° West 458 527 34,000  Level Miami Center
Wed 03:38:00 PM 22.8369 -70.9828 307° West 458 527 34,000  Level Miami Center
Wed 03:39:00 PM 22.9142 -71.0919 308° West 458 527 34,000  Level Miami Center
Wed 03:40:00 PM 22.9894 -71.2058 306° West 458 527 34,000  Level Miami Center
Wed 03:41:00 PM 23.0644 -71.3153 307° West 463 533 34,000  Level Miami Center
Wed 03:42:00 PM 23.1417 -71.4225 308° West 463 533 34,000  Level Miami Center
Wed 03:43:00 PM 23.2167 -71.5344 306° West 457 526 34,000  Level Miami Center
Wed 03:44:00 PM 23.2917 -71.6489 306° West 464 534 34,000  Level Miami Center
Wed 03:45:00 PM 23.3664 -71.7611 306° West 464 534 34,000  Level Miami Center
Wed 03:46:00 PM 23.4431 -71.8711 307° West 459 528 34,000  Level Miami Center
Wed 03:47:00 PM 23.5178 -71.9836 306° West 464 534 34,000  Level Miami Center
Wed 03:48:00 PM 23.5944 -72.0942 307° West 464 534 34,000  Level Miami Center
Wed 03:49:00 PM 23.6669 -72.2092 305° West 464 534 34,000  Level Miami Center
Wed 03:50:00 PM 23.7436 -72.3197 307° West 464 534 34,000  Level Miami Center
Wed 03:51:00 PM 23.8200 -72.4328 306° West 464 534 34,000  Level Miami Center
Wed 03:52:00 PM 23.9028 -72.5525 307° West 453 521 34,000  Level Miami Center
Wed 03:53:00 PM 23.9792 -72.6658 306° West 453 521 34,000  Level Miami Center
Wed 03:54:00 PM 24.0533 -72.7772 306° West 459 528 34,000  Level Miami Center
Wed 03:55:00 PM 24.1253 -72.8908 305° West 462 532 34,000  Level Miami Center
Wed 03:56:00 PM 24.2056 -73.0067 307° West 462 532 34,000  Level Miami Center
Wed 03:57:00 PM 24.2817 -73.1228 306° West 469 540 34,000  Level Miami Center
Wed 03:58:00 PM 24.3578 -73.2369 306° West 463 533 34,000  Level Miami Center
Wed 03:59:00 PM 24.4250 -73.3489 303° West 463 533 34,000  Level Miami Center
Wed 04:00:00 PM 24.5094 -73.4675 308° West 463 533 34,000  Level Miami Center
Wed 04:01:00 PM 24.5872 -73.5842 306° West 463 533 34,000  Level Miami Center
Wed 04:02:00 PM 24.6628 -73.6989 306° West 463 533 34,000  Level Miami Center
Wed 04:03:00 PM 24.7364 -73.8136 305° West 463 533 34,000  Level Miami Center
Wed 04:04:00 PM 24.8094 -73.9261 306° West 463 533 34,000  Level Miami Center
Wed 04:05:00 PM 24.8872 -74.0458 306° West 463 533 34,000  Level Miami Center
Wed 04:06:00 PM 24.9644 -74.1631 306° West 463 533 34,000  Level Miami Center
Wed 04:07:00 PM 25.0331 -74.2486 312° West 463 533 34,000  Level Miami Center
Wed 04:08:00 PM 25.1269 -74.3614 313° West 463 533 34,000  Level Miami Center
Wed 04:09:00 PM 25.2142 -74.4653 313° West 463 533 34,000  Level Miami Center
Wed 04:10:00 PM 25.3036 -74.5692 314° West 468 539 34,000  Level Miami Center
Wed 04:11:00 PM 25.3931 -74.6733 314° West 468 539 34,000  Level Miami Center
Wed 04:12:00 PM 25.4947 -74.7658 321° Northwest 458 527 34,000  Level Miami Center
Wed 04:13:00 PM 25.5942 -74.8586 320° Northwest 463 533 34,000  Level Miami Center
Wed 04:14:00 PM 25.6978 -74.9469 322° Northwest 469 540 34,000  Level Miami Center
Wed 04:15:00 PM 25.7992 -75.0306 323° Northwest 469 540 34,000  Level Miami Center
Wed 04:16:00 PM 25.9025 -75.1239 321° Northwest 469 540 34,000  Level Miami Center
Wed 04:17:00 PM 25.9978 -75.2172 319° Northwest 462 532 34,000  Level Miami Center
Wed 04:18:00 PM 26.0908 -75.3131 317° Northwest 464 534 34,000  Level Miami Center
Wed 04:19:00 PM 26.1753 -75.4208 311° West 456 525 34,000  Level Miami Center
Wed 04:20:00 PM 26.2414 -75.5406 302° West 449 517 34,000  Level Miami Center
Wed 04:21:00 PM 26.2925 -75.6603 295° West 440 506 34,000  Level Miami Center
Wed 04:22:00 PM 26.3394 -75.7897 292° West 453 521 34,000 700 Level Miami Center
Wed 04:23:00 PM 26.3864 -75.9147 293° West 453 521 35,400 1,364 Climbing Miami Center
Wed 04:24:12 PM 26.4350 -76.0372 294° West 438 504 37,000 1,364 Climbing Miami Center
Wed 04:25:12 PM 26.4903 -76.1808 293° West 429 494 38,400 1,150 Climbing Miami Center
Wed 04:26:12 PM 26.5367 -76.3036 293° West 429 494 39,300 800 Climbing Miami Center
Wed 04:27:12 PM 26.5811 -76.4264 292° West 429 494 40,000 350 Climbing Miami Center
Wed 04:28:12 PM 26.6272 -76.5450 294° West 429 494 40,000  Level Miami Center
Wed 04:29:12 PM 26.6714 -76.6656 292° West 428 493 40,000  Level Miami Center
Wed 04:30:12 PM 26.7175 -76.7867 293° West 428 493 40,000  Level Miami Center
Wed 04:31:12 PM 26.7656 -76.9169 292° West 434 499 40,000  Level Miami Center
Wed 04:32:12 PM 26.8092 -77.0381 292° West 434 499 40,000  Level Miami Center
Wed 04:33:12 PM 26.8572 -77.1614 294° West 428 493 40,000  Level Miami Center
Wed 04:34:12 PM 26.9006 -77.2803 292° West 434 499 40,000  Level Miami Center
Wed 04:35:12 PM 26.9461 -77.4039 292° West 434 499 40,000  Level Miami Center
Wed 04:36:12 PM 26.9875 -77.5442 288° West 434 499 40,000  Level Miami Center
Wed 04:37:12 PM 26.9847 -77.6678 269° West 408 470 40,000  Level Miami Center
Wed 04:38:12 PM 26.9797 -77.8006 268° West 418 481 40,000  Level Miami Center
Wed 04:39:12 PM 26.9747 -77.9333 268° West 424 488 40,000  Level Miami Center
Wed 04:40:12 PM 26.9694 -78.0661 267° West 426 490 40,000  Level Miami Center
Wed 04:41:12 PM 26.9664 -78.1897 268° West 427 491 40,000  Level Miami Center
Wed 04:42:12 PM 26.9608 -78.3178 267° West 415 478 40,000  Level Miami Center
Wed 04:43:12 PM 26.9553 -78.4436 267° West 415 478 40,000 -400 Level Miami Center
Wed 04:44:12 PM 26.9664 -78.5719 276° West 415 478 39,200 -500 Descending Miami Center
Wed 04:45:12 PM 27.0489 -78.6736 312° West 401 461 39,000 -100 Descending Miami Center
Wed 04:46:12 PM 27.1417 -78.7636 319° Northwest 419 482 39,000  Level Miami Center
Wed 04:47:12 PM 27.2322 -78.8586 317° Northwest 441 507 39,000  Level Miami Center
Wed 04:48:12 PM 27.3144 -78.9464 317° Northwest 453 521 39,000  Level Miami Center
Wed 04:49:12 PM 27.4133 -79.0489 317° Northwest 444 511 39,000  Level Miami Center
Wed 04:50:12 PM 27.5036 -79.1442 317° Northwest 444 511 39,000  Level Miami Center
Wed 04:51:12 PM 27.5897 -79.2397 315° West 439 505 39,000  Level Miami Center
Wed 04:52:12 PM 27.6697 -79.3258 316° Northwest 445 512 39,000  Level Miami Center
Wed 04:53:12 PM 27.7600 -79.4217 317° Northwest 445 512 39,000  Level Miami Center
Wed 04:54:12 PM 27.8606 -79.5272 317° Northwest 450 518 39,000  Level Miami Center
Wed 04:55:12 PM 27.9483 -79.6281 315° West 445 512 39,000  Level Miami Center
Wed 04:56:12 PM 28.0383 -79.7244 317° Northwest 445 512 39,000  Level Miami Center
Wed 04:57:12 PM 28.1303 -79.8233 317° Northwest 451 519 39,000  Level Miami Center
Wed 04:58:12 PM 28.2222 -79.9175 318° Northwest 451 519 39,000  Level Miami Center
Wed 04:59:45 PM 28.3589 -80.0714 315° West 452 520 39,000  Level Jacksonville Center
Wed 05:00:45 PM 28.4508 -80.1703 317° Northwest 452 520 39,000  Level Jacksonville Center
Wed 05:01:45 PM 28.5406 -80.2672 317° Northwest 452 520 39,000  Level Jacksonville Center
Wed 05:02:45 PM 28.6281 -80.3642 316° Northwest 452 520 39,000  Level Jacksonville Center
Wed 05:03:45 PM 28.7197 -80.4686 315° West 447 514 39,000  Level Jacksonville Center
Wed 05:04:45 PM 28.8092 -80.5658 316° Northwest 447 514 39,000  Level Jacksonville Center
Wed 05:05:45 PM 28.9128 -80.6464 326° Northwest 447 514 39,000  Level Jacksonville Center
Wed 05:06:45 PM 29.0308 -80.7103 335° Northwest 457 526 39,000  Level Jacksonville Center
Wed 05:07:45 PM 29.1489 -80.7742 335° Northwest 457 526 39,000  Level Jacksonville Center
Wed 05:08:45 PM 29.2606 -80.8408 332° Northwest 457 526 39,000  Level Jacksonville Center
Wed 05:09:45 PM 29.3722 -80.9075 333° Northwest 457 526 39,000  Level Jacksonville Center
Wed 05:10:45 PM 29.4492 -81.0206 308° West 438 504 39,000 -150 Level Jacksonville Center
Wed 05:11:45 PM 29.5111 -81.1361 302° West 438 504 38,700 -600 Descending Jacksonville Center
Wed 05:12:45 PM 29.5817 -81.2544 304° West 438 504 37,800 -850 Descending Jacksonville Center
Wed 05:13:45 PM 29.6500 -81.3728 304° West 444 511 37,000 -400 Descending Jacksonville Center
Wed 05:14:45 PM 29.7200 -81.4839 306° West 439 505 37,000  Level Jacksonville Center
Wed 05:15:45 PM 29.8314 -81.5397 337° Northwest 420 483 37,000  Level Jacksonville Center
Wed 05:16:45 PM 29.9592 -81.5717 348° North 432 497 37,000  Level Jacksonville Center
Wed 05:17:45 PM 30.0825 -81.6036 347° North 444 511 37,000  Level Jacksonville Center
Wed 05:18:45 PM 30.2081 -81.6331 349° North 444 511 37,000  Level Jacksonville Center
Wed 05:19:45 PM 30.3211 -81.6606 348° North 455 524 37,000  Level Jacksonville Center
Wed 05:20:45 PM 30.4489 -81.6950 347° North 460 529 37,000  Level Jacksonville Center
Wed 05:21:45 PM 30.5722 -81.7297 346° North 451 519 37,000  Level Jacksonville Center
Wed 05:22:45 PM 30.6958 -81.7644 346° North 456 525 37,000  Level Jacksonville Center
Wed 05:23:45 PM 30.8192 -81.7992 346° North 456 525 37,000  Level Jacksonville Center
Wed 05:24:45 PM 30.9325 -81.8583 336° Northwest 451 519 37,000  Level Jacksonville Center
Wed 05:25:45 PM 31.0417 -81.9250 332° Northwest 445 512 37,000  Level Jacksonville Center
Wed 05:26:45 PM 31.1528 -81.9919 333° Northwest 445 512 37,000  Level Jacksonville Center
Wed 05:27:45 PM 31.2639 -82.0542 334° Northwest 450 518 37,000 -300 Level Jacksonville Center
Wed 05:28:45 PM 31.3750 -82.1211 333° Northwest 450 518 36,400 -700 Descending Jacksonville Center
Wed 05:29:45 PM 31.4881 -82.1886 333° Northwest 450 518 35,600 -700 Descending Jacksonville Center
Wed 05:30:45 PM 31.6011 -82.2536 334° Northwest 457 526 35,000 -181 Descending Jacksonville Center
Wed 05:33:04 PM 31.8653 -82.4103 333° Northwest 457 526 35,000  Level Atlanta Center
Wed 05:34:04 PM 31.9767 -82.4792 332° Northwest 451 519 35,000  Level Atlanta Center
Wed 05:35:04 PM 32.0739 -82.5731 321° Northwest 451 519 35,000  Level Atlanta Center
Wed 05:36:04 PM 32.1669 -82.6697 319° Northwest 451 519 35,000  Level Atlanta Center
Wed 05:37:04 PM 32.2619 -82.7689 319° Northwest 451 519 35,000 -400 Level Atlanta Center
Wed 05:38:04 PM 32.3567 -82.8708 318° Northwest 451 519 34,200 -900 Descending Atlanta Center
Wed 05:39:04 PM 32.4517 -82.9756 317° Northwest 451 519 33,200 -950 Descending Atlanta Center
Wed 05:40:04 PM 32.5486 -83.0803 318° Northwest 456 525 32,300 -950 Descending Atlanta Center
Wed 05:41:04 PM 32.6453 -83.1853 318° Northwest 461 531 31,300 -1,750 Descending Atlanta Center
Wed 05:42:04 PM 32.7419 -83.2906 318° Northwest 467 537 28,800 -2,800 Descending Atlanta Center
Wed 05:43:04 PM 32.8386 -83.3986 317° Northwest 472 543 25,700 -2,950 Descending Atlanta Center
Wed 05:44:04 PM 32.9331 -83.4969 319° Northwest 467 537 22,900 -3,000 Descending Atlanta Center
Wed 05:45:04 PM 33.0211 -83.5953 317° Northwest 451 519 19,700 -3,200 Descending Atlanta Center
Wed 05:46:04 PM 33.1175 -83.7039 317° Northwest 432 497 16,500 -2,800 Descending Atlanta Center
Wed 05:47:04 PM 33.2011 -83.7981 317° Northwest 419 482 14,100 -1,250 Descending Atlanta Center
Wed 05:48:04 PM 33.2661 -83.8872 311° West 405 466 14,000 -50 Descending Atlanta Center
Wed 05:49:04 PM 33.3392 -83.9942 309° West 405 466 14,000 -150 Level Atlanta Center
Wed 05:50:04 PM 33.4081 -84.0961 309° West 404 465 13,700 -541 Descending Atlanta Center
Wed 05:51:06 PM 33.4833 -84.2000 311° West 359 413 12,900 -516 Descending Atlanta TRACON
Wed 05:52:12 PM 33.5333 -84.3000 301° West 293 337 12,600 -610 Descending Atlanta TRACON
Wed 05:53:04 PM 33.5369 -84.3778 273° West 277 319 11,700 -1,446 Descending Atlanta Center
Wed 05:54:04 PM 33.5367 -84.4625 270° West 266 306 9,900 -1,945 Descending Atlanta Center
Wed 05:56:06 PM 33.5333 -84.6167 269° West 233 268 5,800 -1,879 Descending Atlanta TRACON
Wed 05:57:06 PM 33.5667 -84.6667 309° West 230 265 4,200 -1,200 Descending Atlanta TRACON
Wed 05:58:06 PM 33.6167 -84.6167 40° Northeast 193 222 3,400 -684 Descending Atlanta TRACON
Wed 05:59:00 PM 33.6167 -84.5667 90° East 193 222 2,900 -750 Descending Atlanta TRACON
Wed 06:00:06 PM 33.6167 -84.5000 90° East 156 180 1,900 -762 Descending Atlanta TRACON
Wed 06:01:06 PM 33.6167 -84.4667 90° East 121 139 1,300 -600 Descending Atlanta TRACON

Login

Don't have an account? Register now (free) for customized features, flight alerts, and more!